Turton, South Dakota
Current Conditions -  °F | °C
As of 11:03 PM on Monday 22 Dec 2014 (Local Time) from KABR Reporting Station
Light Snow Light Snow  
Wind Chill: 24°   Ceiling: 400
Heat Index: 33°   Visibility: 1.7mi
Dew Point: 31°   Wind: 13mph
Humidity: 92%   Direction: 30°NNE
Pressure: 29.62"   Gusts: NA
Location:  45.05°N, 98.1°W
Report Text: KABR 230503Z AUTO 03011KT 1 3/4SM -SN BR OVC004 01/M01 A2962 RMK AO2 P0001 T00061006
Loading
Personal Weather Stations






























Interactive Weather Map New forecast layout! Learn more

10-Day Weather Forecast

Advertisements
Track Severe Weather on mobile